DAL871 KSLC-KSEA
Flight info
| Callsign | DAL871 |
|---|---|
| Flight time | 1h 47m |
| Altitude | 38000 |
| Route | CGULL1 TWF BOI J163 HOVEL PDT CHINS5 |
| Aircraft | B738/M-SDE2E3FGHIRWXY/LB1 |
Departure
| Time | 2026-05-06 23:35 |
|---|---|
| Airport | Salt Lake City International Airport (KSLC) |
Arrival
| Time | 2026-05-07 01:23 |
|---|---|
| Airport | Seattle–Tacoma International Airport (KSEA) |
| Time | Latitude | Longitude | Altitude | Speed | Heading |
|---|---|---|---|---|---|
| 2026-05-06 23:07 | 40.78846 | -111.98464 | 4230 ft | 0 kts | 5° |
| 2026-05-06 23:25 | 40.78826 | -111.98464 | 4230 ft | 4 kts | 350° |
| 2026-05-06 23:25 | 40.78802 | -111.98453 | 4230 ft | 4 kts | 322° |
| 2026-05-06 23:25 | 40.78785 | -111.98428 | 4230 ft | 4 kts | 287° |
| 2026-05-06 23:26 | 40.78782 | -111.98407 | 4230 ft | 0 kts | 265° |
| 2026-05-06 23:28 | 40.78781 | -111.98419 | 4230 ft | 4 kts | 265° |
| 2026-05-06 23:29 | 40.78777 | -111.98476 | 4230 ft | 8 kts | 264° |
| 2026-05-06 23:29 | 40.78771 | -111.98563 | 4230 ft | 13 kts | 264° |
| 2026-05-06 23:29 | 40.78761 | -111.98702 | 4230 ft | 18 kts | 265° |
| 2026-05-06 23:29 | 40.78748 | -111.98883 | 4230 ft | 20 kts | 264° |
| 2026-05-06 23:30 | 40.78735 | -111.99067 | 4230 ft | 20 kts | 265° |
| 2026-05-06 23:30 | 40.78725 | -111.99246 | 4230 ft | 19 kts | 269° |
| 2026-05-06 23:30 | 40.78716 | -111.99420 | 4230 ft | 19 kts | 262° |
| 2026-05-06 23:30 | 40.78623 | -111.99461 | 4230 ft | 16 kts | 175° |
| 2026-05-06 23:31 | 40.78513 | -111.99449 | 4230 ft | 16 kts | 175° |
| 2026-05-06 23:31 | 40.78396 | -111.99435 | 4230 ft | 17 kts | 174° |
| 2026-05-06 23:31 | 40.78279 | -111.99421 | 4230 ft | 17 kts | 175° |
| 2026-05-06 23:31 | 40.78166 | -111.99408 | 4230 ft | 16 kts | 175° |
| 2026-05-06 23:32 | 40.78058 | -111.99422 | 4245 ft | 15 kts | 193° |
| 2026-05-06 23:32 | 40.77954 | -111.99437 | 4264 ft | 16 kts | 175° |
| 2026-05-06 23:32 | 40.77835 | -111.99424 | 4264 ft | 19 kts | 175° |
| 2026-05-06 23:32 | 40.77707 | -111.99409 | 4265 ft | 18 kts | 175° |
| 2026-05-06 23:33 | 40.77582 | -111.99393 | 4265 ft | 14 kts | 175° |
| 2026-05-06 23:33 | 40.77541 | -111.99404 | 4264 ft | 1 kts | 207° |
| 2026-05-06 23:33 | 40.77533 | -111.99411 | 4265 ft | 1 kts | 218° |
| 2026-05-06 23:33 | 40.77532 | -111.99413 | 4265 ft | 0 kts | 220° |
| 2026-05-06 23:34 | 40.77524 | -111.99451 | 4265 ft | 8 kts | 262° |
| 2026-05-06 23:34 | 40.77534 | -111.99542 | 4266 ft | 12 kts | 320° |
| 2026-05-06 23:34 | 40.77662 | -111.99567 | 4266 ft | 40 kts | 354° |
| 2026-05-06 23:35 | 40.78168 | -111.99627 | 4228 ft | 105 kts | 355° |
| 2026-05-06 23:35 | 40.79084 | -111.99742 | 4233 ft | 158 kts | 355° |
| 2026-05-06 23:35 | 40.79868 | -111.99813 | 4345 ft | 179 kts | 352° |
| 2026-05-06 23:35 | 40.81328 | -112.00407 | 5484 ft | 168 kts | 312° |
| 2026-05-06 23:36 | 40.81905 | -112.01819 | 6036 ft | 181 kts | 290° |
| 2026-05-06 23:36 | 40.82373 | -112.03516 | 6307 ft | 211 kts | 290° |
| 2026-05-06 23:36 | 40.82712 | -112.04761 | 6502 ft | 222 kts | 289° |
| 2026-05-06 23:36 | 40.83403 | -112.06693 | 6761 ft | 240 kts | 308° |
| 2026-05-06 23:37 | 40.84552 | -112.08407 | 7032 ft | 261 kts | 312° |
| 2026-05-06 23:37 | 40.85797 | -112.10210 | 7731 ft | 266 kts | 313° |
| 2026-05-06 23:37 | 40.87043 | -112.12037 | 8508 ft | 264 kts | 314° |
| 2026-05-06 23:37 | 40.88285 | -112.13884 | 9037 ft | 272 kts | 314° |
| 2026-05-06 23:38 | 40.89537 | -112.15765 | 9928 ft | 273 kts | 314° |
| 2026-05-06 23:38 | 40.90804 | -112.17682 | 10569 ft | 284 kts | 314° |
| 2026-05-06 23:38 | 40.92164 | -112.19746 | 10754 ft | 311 kts | 313° |
| 2026-05-06 23:38 | 40.93637 | -112.21993 | 10944 ft | 335 kts | 313° |
| 2026-05-06 23:39 | 40.95191 | -112.24375 | 11124 ft | 356 kts | 313° |
| 2026-05-06 23:39 | 40.96849 | -112.26929 | 11619 ft | 365 kts | 313° |
| 2026-05-06 23:39 | 40.98494 | -112.29466 | 12312 ft | 368 kts | 312° |
| 2026-05-06 23:39 | 41.00163 | -112.32044 | 13055 ft | 371 kts | 312° |
| 2026-05-06 23:40 | 41.01851 | -112.34650 | 13736 ft | 375 kts | 312° |
| 2026-05-06 23:40 | 41.03561 | -112.37291 | 14311 ft | 380 kts | 312° |
| 2026-05-06 23:40 | 41.05291 | -112.39963 | 14943 ft | 382 kts | 312° |
| 2026-05-06 23:40 | 41.07120 | -112.42512 | 15591 ft | 382 kts | 320° |
| 2026-05-06 23:41 | 41.09257 | -112.44624 | 16208 ft | 383 kts | 329° |
| 2026-05-06 23:41 | 41.11538 | -112.46467 | 16807 ft | 386 kts | 330° |
| 2026-05-06 23:41 | 41.13833 | -112.48349 | 17395 ft | 389 kts | 329° |
| 2026-05-06 23:41 | 41.16139 | -112.50272 | 17994 ft | 392 kts | 329° |
| 2026-05-06 23:42 | 41.18395 | -112.52328 | 18540 ft | 396 kts | 325° |
| 2026-05-06 23:42 | 41.20566 | -112.54543 | 19024 ft | 399 kts | 324° |
| 2026-05-06 23:42 | 41.22759 | -112.56828 | 19546 ft | 401 kts | 324° |
| 2026-05-06 23:42 | 41.24971 | -112.59107 | 20074 ft | 403 kts | 324° |
| 2026-05-06 23:43 | 41.27192 | -112.61388 | 20582 ft | 405 kts | 323° |
| 2026-05-06 23:43 | 41.29279 | -112.63938 | 21067 ft | 410 kts | 316° |
| 2026-05-06 23:43 | 41.31190 | -112.66772 | 21552 ft | 413 kts | 315° |
| 2026-05-06 23:43 | 41.33075 | -112.69608 | 22008 ft | 415 kts | 315° |
| 2026-05-06 23:44 | 41.35001 | -112.72484 | 22472 ft | 417 kts | 315° |
| 2026-05-06 23:44 | 41.36949 | -112.75354 | 22934 ft | 418 kts | 315° |
| 2026-05-06 23:44 | 41.38915 | -112.78235 | 23337 ft | 421 kts | 315° |
| 2026-05-06 23:44 | 41.40889 | -112.81134 | 23731 ft | 423 kts | 315° |
| 2026-05-06 23:45 | 41.42846 | -112.84082 | 24075 ft | 426 kts | 314° |
| 2026-05-06 23:45 | 41.44803 | -112.87075 | 24414 ft | 428 kts | 314° |
| 2026-05-06 23:45 | 41.46755 | -112.90078 | 24761 ft | 430 kts | 314° |
| 2026-05-06 23:45 | 41.48719 | -112.93102 | 25096 ft | 431 kts | 314° |
| 2026-05-06 23:46 | 41.50669 | -112.96104 | 25413 ft | 433 kts | 314° |
| 2026-05-06 23:46 | 41.52648 | -112.99150 | 25730 ft | 435 kts | 314° |
| 2026-05-06 23:46 | 41.54637 | -113.02208 | 26031 ft | 437 kts | 314° |
| 2026-05-06 23:46 | 41.56637 | -113.05285 | 26342 ft | 439 kts | 314° |
| 2026-05-06 23:47 | 41.58649 | -113.08381 | 26645 ft | 441 kts | 314° |
| 2026-05-06 23:47 | 41.60658 | -113.11476 | 26919 ft | 442 kts | 314° |
| 2026-05-06 23:47 | 41.62686 | -113.14603 | 27133 ft | 446 kts | 314° |
| 2026-05-06 23:47 | 41.64697 | -113.17707 | 27542 ft | 444 kts | 314° |
| 2026-05-06 23:48 | 41.66707 | -113.20815 | 28135 ft | 439 kts | 314° |
| 2026-05-06 23:48 | 41.68701 | -113.23903 | 28547 ft | 438 kts | 314° |
| 2026-05-06 23:48 | 41.70696 | -113.26991 | 28916 ft | 438 kts | 314° |
| 2026-05-06 23:48 | 41.72692 | -113.30084 | 29319 ft | 438 kts | 314° |
| 2026-05-06 23:49 | 41.74680 | -113.33169 | 29769 ft | 436 kts | 314° |
| 2026-05-06 23:49 | 41.76661 | -113.36246 | 30207 ft | 434 kts | 314° |
| 2026-05-06 23:49 | 41.78630 | -113.39309 | 30638 ft | 431 kts | 314° |
| 2026-05-06 23:49 | 41.80542 | -113.42288 | 31281 ft | 423 kts | 314° |
| 2026-05-06 23:50 | 41.82460 | -113.45278 | 31687 ft | 420 kts | 314° |
| 2026-05-06 23:50 | 41.86276 | -113.51228 | 32260 ft | 421 kts | 313° |
| 2026-05-06 23:50 | 41.88192 | -113.54221 | 32552 ft | 422 kts | 313° |
| 2026-05-06 23:51 | 41.90080 | -113.57172 | 32908 ft | 420 kts | 313° |
| 2026-05-06 23:51 | 41.91979 | -113.60147 | 33312 ft | 418 kts | 313° |
| 2026-05-06 23:51 | 41.93866 | -113.63106 | 33784 ft | 415 kts | 313° |
| 2026-05-06 23:51 | 41.95734 | -113.66037 | 34232 ft | 411 kts | 313° |
| 2026-05-06 23:52 | 41.97590 | -113.68953 | 34491 ft | 411 kts | 313° |
| 2026-05-06 23:52 | 41.99451 | -113.71877 | 34702 ft | 411 kts | 313° |
| 2026-05-06 23:52 | 42.01316 | -113.74810 | 34934 ft | 411 kts | 313° |
| 2026-05-06 23:52 | 42.03174 | -113.77737 | 35193 ft | 411 kts | 313° |
| 2026-05-06 23:53 | 42.05029 | -113.80662 | 35448 ft | 410 kts | 313° |
| 2026-05-06 23:53 | 42.06874 | -113.83575 | 35709 ft | 409 kts | 312° |
| 2026-05-06 23:53 | 42.08723 | -113.86496 | 35976 ft | 408 kts | 312° |
| 2026-05-06 23:53 | 42.10562 | -113.89404 | 36281 ft | 407 kts | 312° |
| 2026-05-06 23:54 | 42.12373 | -113.92271 | 36539 ft | 406 kts | 312° |
| 2026-05-06 23:54 | 42.14200 | -113.95165 | 36771 ft | 405 kts | 312° |
| 2026-05-06 23:54 | 42.16030 | -113.98065 | 37014 ft | 405 kts | 312° |
| 2026-05-06 23:54 | 42.17862 | -114.00969 | 37268 ft | 404 kts | 312° |
| 2026-05-06 23:55 | 42.19664 | -114.03817 | 37493 ft | 403 kts | 312° |
| 2026-05-06 23:55 | 42.21487 | -114.06695 | 37698 ft | 403 kts | 312° |
| 2026-05-06 23:55 | 42.23310 | -114.09574 | 37889 ft | 403 kts | 312° |
| 2026-05-06 23:55 | 42.25127 | -114.12447 | 38082 ft | 401 kts | 312° |
| 2026-05-06 23:56 | 42.28760 | -114.18205 | 38080 ft | 404 kts | 312° |
| 2026-05-06 23:56 | 42.32402 | -114.23990 | 38079 ft | 403 kts | 311° |
| 2026-05-06 23:57 | 42.36026 | -114.29759 | 38083 ft | 402 kts | 311° |
| 2026-05-06 23:57 | 42.39639 | -114.35520 | 38076 ft | 401 kts | 311° |
| 2026-05-06 23:58 | 42.43241 | -114.41276 | 38114 ft | 401 kts | 311° |
| 2026-05-06 23:58 | 42.46825 | -114.47012 | 38122 ft | 400 kts | 311° |
| 2026-05-06 23:59 | 42.50430 | -114.52708 | 38121 ft | 399 kts | 312° |
| 2026-05-06 23:59 | 42.54107 | -114.58367 | 38095 ft | 399 kts | 313° |
| 2026-05-07 00:00 | 42.57790 | -114.64040 | 38097 ft | 400 kts | 312° |
| 2026-05-07 00:00 | 42.61458 | -114.69718 | 38092 ft | 401 kts | 312° |
| 2026-05-07 00:01 | 42.65114 | -114.75396 | 38080 ft | 402 kts | 312° |
| 2026-05-07 00:01 | 42.68796 | -114.81130 | 38060 ft | 403 kts | 312° |
| 2026-05-07 00:02 | 42.72493 | -114.86898 | 38051 ft | 404 kts | 312° |
| 2026-05-07 00:02 | 42.76183 | -114.92667 | 38056 ft | 404 kts | 312° |
| 2026-05-07 00:03 | 42.79851 | -114.98414 | 38050 ft | 404 kts | 312° |
| 2026-05-07 00:03 | 42.83542 | -115.04208 | 38047 ft | 404 kts | 312° |
| 2026-05-07 00:04 | 42.87225 | -115.10000 | 38058 ft | 404 kts | 312° |
| 2026-05-07 00:04 | 42.90881 | -115.15760 | 38072 ft | 403 kts | 312° |
| 2026-05-07 00:05 | 42.94552 | -115.21558 | 38062 ft | 403 kts | 312° |
| 2026-05-07 00:05 | 42.98209 | -115.27343 | 38057 ft | 402 kts | 312° |
| 2026-05-07 00:06 | 43.01867 | -115.33141 | 38055 ft | 401 kts | 312° |
| 2026-05-07 00:06 | 43.05485 | -115.38889 | 38056 ft | 401 kts | 312° |
| 2026-05-07 00:07 | 43.09127 | -115.44686 | 38048 ft | 401 kts | 312° |
| 2026-05-07 00:07 | 43.12756 | -115.50472 | 38050 ft | 400 kts | 312° |
| 2026-05-07 00:08 | 43.16379 | -115.56261 | 38047 ft | 400 kts | 312° |
| 2026-05-07 00:08 | 43.20000 | -115.62060 | 38054 ft | 400 kts | 312° |
| 2026-05-07 00:09 | 43.23623 | -115.67873 | 38047 ft | 401 kts | 312° |
| 2026-05-07 00:09 | 43.27225 | -115.73662 | 38047 ft | 401 kts | 312° |
| 2026-05-07 00:10 | 43.30852 | -115.79505 | 38044 ft | 402 kts | 312° |
| 2026-05-07 00:10 | 43.34475 | -115.85352 | 38042 ft | 402 kts | 312° |
| 2026-05-07 00:11 | 43.38099 | -115.91213 | 38040 ft | 402 kts | 312° |
| 2026-05-07 00:11 | 43.41700 | -115.97049 | 38041 ft | 403 kts | 312° |
| 2026-05-07 00:12 | 43.45325 | -116.02937 | 38046 ft | 403 kts | 312° |
| 2026-05-07 00:12 | 43.48944 | -116.08826 | 38044 ft | 403 kts | 312° |
| 2026-05-07 00:13 | 43.52574 | -116.14743 | 38044 ft | 403 kts | 312° |
| 2026-05-07 00:13 | 43.56290 | -116.20538 | 38039 ft | 402 kts | 318° |
| 2026-05-07 00:14 | 43.60449 | -116.25626 | 38022 ft | 402 kts | 320° |
| 2026-05-07 00:14 | 43.64663 | -116.30679 | 38028 ft | 401 kts | 320° |
| 2026-05-07 00:15 | 43.68868 | -116.35778 | 38022 ft | 401 kts | 319° |
| 2026-05-07 00:15 | 43.73027 | -116.40863 | 38024 ft | 401 kts | 319° |
| 2026-05-07 00:16 | 43.77203 | -116.45994 | 38020 ft | 401 kts | 319° |
| 2026-05-07 00:16 | 43.81372 | -116.51128 | 38018 ft | 401 kts | 319° |
| 2026-05-07 00:17 | 43.85537 | -116.56265 | 38025 ft | 401 kts | 319° |
| 2026-05-07 00:17 | 43.89677 | -116.61381 | 38025 ft | 400 kts | 319° |
| 2026-05-07 00:18 | 43.93836 | -116.66532 | 38031 ft | 400 kts | 319° |
| 2026-05-07 00:18 | 43.97988 | -116.71683 | 38030 ft | 400 kts | 319° |
| 2026-05-07 00:19 | 44.02132 | -116.76835 | 38031 ft | 400 kts | 319° |
| 2026-05-07 00:19 | 44.06279 | -116.82001 | 38024 ft | 400 kts | 319° |
| 2026-05-07 00:20 | 44.10398 | -116.87141 | 38032 ft | 399 kts | 319° |
| 2026-05-07 00:20 | 44.14527 | -116.92305 | 38026 ft | 399 kts | 319° |
| 2026-05-07 00:21 | 44.18658 | -116.97481 | 38017 ft | 399 kts | 319° |
| 2026-05-07 00:21 | 44.22779 | -117.02655 | 38029 ft | 399 kts | 319° |
| 2026-05-07 00:22 | 44.26910 | -117.07851 | 38028 ft | 399 kts | 319° |
| 2026-05-07 00:22 | 44.31034 | -117.13050 | 38042 ft | 399 kts | 319° |
| 2026-05-07 00:23 | 44.34459 | -117.17375 | 38046 ft | 400 kts | 319° |
| 2026-05-07 00:23 | 44.39254 | -117.23434 | 38039 ft | 399 kts | 319° |
| 2026-05-07 00:24 | 44.43375 | -117.28646 | 38032 ft | 399 kts | 319° |
| 2026-05-07 00:24 | 44.46799 | -117.32985 | 38036 ft | 399 kts | 319° |
| 2026-05-07 00:25 | 44.50921 | -117.38219 | 38039 ft | 400 kts | 319° |
| 2026-05-07 00:25 | 44.55042 | -117.43463 | 38037 ft | 400 kts | 319° |
| 2026-05-07 00:26 | 44.59156 | -117.48711 | 38038 ft | 400 kts | 319° |
| 2026-05-07 00:26 | 44.63282 | -117.53982 | 38038 ft | 400 kts | 319° |
| 2026-05-07 00:27 | 44.67373 | -117.59221 | 38031 ft | 401 kts | 319° |
| 2026-05-07 00:27 | 44.71495 | -117.64508 | 38046 ft | 400 kts | 319° |
| 2026-05-07 00:28 | 44.75610 | -117.69798 | 38061 ft | 400 kts | 319° |
| 2026-05-07 00:28 | 44.79716 | -117.75087 | 38049 ft | 400 kts | 319° |
| 2026-05-07 00:29 | 44.83817 | -117.80380 | 38039 ft | 399 kts | 319° |
| 2026-05-07 00:30 | 44.91954 | -117.90914 | 38046 ft | 396 kts | 319° |
| 2026-05-07 00:30 | 44.95993 | -117.96158 | 38049 ft | 396 kts | 319° |
| 2026-05-07 00:31 | 45.00037 | -118.01420 | 38048 ft | 395 kts | 319° |
| 2026-05-07 00:31 | 45.04077 | -118.06686 | 38043 ft | 394 kts | 319° |
| 2026-05-07 00:32 | 45.08107 | -118.11951 | 38050 ft | 393 kts | 319° |
| 2026-05-07 00:32 | 45.12129 | -118.17216 | 38060 ft | 393 kts | 319° |
| 2026-05-07 00:33 | 45.16115 | -118.22444 | 38070 ft | 393 kts | 318° |
| 2026-05-07 00:33 | 45.20132 | -118.27723 | 38075 ft | 393 kts | 319° |
| 2026-05-07 00:34 | 45.24147 | -118.33010 | 38065 ft | 394 kts | 319° |
| 2026-05-07 00:34 | 45.28160 | -118.38306 | 38072 ft | 394 kts | 318° |
| 2026-05-07 00:35 | 45.32154 | -118.43586 | 38072 ft | 394 kts | 318° |
| 2026-05-07 00:35 | 45.36161 | -118.48896 | 38077 ft | 394 kts | 318° |
| 2026-05-07 00:36 | 45.40168 | -118.54215 | 38055 ft | 394 kts | 318° |
| 2026-05-07 00:36 | 45.44157 | -118.59520 | 38044 ft | 394 kts | 318° |
| 2026-05-07 00:37 | 45.48167 | -118.64867 | 38025 ft | 395 kts | 318° |
| 2026-05-07 00:37 | 45.52184 | -118.70233 | 38002 ft | 395 kts | 318° |
| 2026-05-07 00:38 | 45.56191 | -118.75597 | 37998 ft | 395 kts | 318° |
| 2026-05-07 00:38 | 45.60168 | -118.80931 | 37988 ft | 395 kts | 318° |
| 2026-05-07 00:39 | 45.64170 | -118.86311 | 37988 ft | 394 kts | 318° |
| 2026-05-07 00:39 | 45.68170 | -118.91697 | 37987 ft | 394 kts | 318° |
| 2026-05-07 00:40 | 45.72012 | -118.97282 | 37961 ft | 395 kts | 313° |
| 2026-05-07 00:40 | 45.75539 | -119.03316 | 37954 ft | 395 kts | 311° |
| 2026-05-07 00:41 | 45.79016 | -119.09336 | 37941 ft | 394 kts | 311° |
| 2026-05-07 00:41 | 45.82538 | -119.15353 | 37940 ft | 393 kts | 311° |
| 2026-05-07 00:42 | 45.86074 | -119.21357 | 37939 ft | 393 kts | 312° |
| 2026-05-07 00:42 | 45.89603 | -119.27347 | 37943 ft | 393 kts | 311° |
| 2026-05-07 00:43 | 45.93110 | -119.33313 | 37946 ft | 393 kts | 311° |
| 2026-05-07 00:43 | 45.96634 | -119.39322 | 37940 ft | 393 kts | 311° |
| 2026-05-07 00:44 | 46.00164 | -119.45354 | 37934 ft | 393 kts | 311° |
| 2026-05-07 00:44 | 46.03675 | -119.51367 | 37919 ft | 394 kts | 311° |
| 2026-05-07 00:45 | 46.07195 | -119.57409 | 37916 ft | 394 kts | 311° |
| 2026-05-07 00:45 | 46.10721 | -119.63474 | 37907 ft | 395 kts | 311° |
| 2026-05-07 00:46 | 46.14244 | -119.69547 | 37905 ft | 395 kts | 311° |
| 2026-05-07 00:46 | 46.17776 | -119.75648 | 37916 ft | 395 kts | 311° |
| 2026-05-07 00:47 | 46.21301 | -119.81753 | 37900 ft | 395 kts | 310° |
| 2026-05-07 00:47 | 46.24790 | -119.87819 | 37905 ft | 395 kts | 310° |
| 2026-05-07 00:48 | 46.28307 | -119.93940 | 37909 ft | 395 kts | 310° |
| 2026-05-07 00:48 | 46.31813 | -120.00058 | 37915 ft | 395 kts | 310° |
| 2026-05-07 00:49 | 46.35296 | -120.06149 | 37919 ft | 394 kts | 310° |
| 2026-05-07 00:49 | 46.38792 | -120.12276 | 37914 ft | 393 kts | 310° |
| 2026-05-07 00:50 | 46.42275 | -120.18396 | 37932 ft | 393 kts | 310° |
| 2026-05-07 00:50 | 46.45730 | -120.24479 | 37944 ft | 392 kts | 310° |
| 2026-05-07 00:51 | 46.49201 | -120.30604 | 37968 ft | 392 kts | 310° |
| 2026-05-07 00:51 | 46.52658 | -120.36719 | 37963 ft | 391 kts | 310° |
| 2026-05-07 00:52 | 46.56102 | -120.42821 | 37956 ft | 390 kts | 309° |
| 2026-05-07 00:52 | 46.57795 | -120.45908 | 37757 ft | 393 kts | 307° |
| 2026-05-07 00:52 | 46.59396 | -120.49141 | 37290 ft | 393 kts | 306° |
| 2026-05-07 00:53 | 46.60920 | -120.52372 | 36719 ft | 390 kts | 305° |
| 2026-05-07 00:53 | 46.62461 | -120.55676 | 36106 ft | 390 kts | 305° |
| 2026-05-07 00:53 | 46.63987 | -120.58938 | 35483 ft | 390 kts | 305° |
| 2026-05-07 00:53 | 46.65528 | -120.62209 | 34673 ft | 395 kts | 305° |
| 2026-05-07 00:54 | 46.67069 | -120.65466 | 33991 ft | 397 kts | 305° |
| 2026-05-07 00:54 | 46.68665 | -120.68828 | 33198 ft | 399 kts | 304° |
| 2026-05-07 00:54 | 46.70226 | -120.72116 | 32464 ft | 400 kts | 304° |
| 2026-05-07 00:54 | 46.71814 | -120.75461 | 31720 ft | 401 kts | 304° |
| 2026-05-07 00:55 | 46.73403 | -120.78812 | 30971 ft | 403 kts | 304° |
| 2026-05-07 00:55 | 46.75002 | -120.82188 | 30219 ft | 405 kts | 304° |
| 2026-05-07 00:55 | 46.76608 | -120.85584 | 29500 ft | 404 kts | 304° |
| 2026-05-07 00:55 | 46.78179 | -120.88908 | 28875 ft | 400 kts | 304° |
| 2026-05-07 00:56 | 46.79750 | -120.92238 | 28312 ft | 396 kts | 304° |
| 2026-05-07 00:56 | 46.81303 | -120.95533 | 27770 ft | 392 kts | 304° |
| 2026-05-07 00:56 | 46.82838 | -120.98793 | 27201 ft | 388 kts | 304° |
| 2026-05-07 00:56 | 46.84358 | -121.02025 | 26641 ft | 384 kts | 304° |
| 2026-05-07 00:57 | 46.85864 | -121.05231 | 26098 ft | 381 kts | 303° |
| 2026-05-07 00:57 | 46.87353 | -121.08406 | 25553 ft | 378 kts | 303° |
| 2026-05-07 00:57 | 46.88836 | -121.11572 | 25014 ft | 375 kts | 303° |
| 2026-05-07 00:57 | 46.90309 | -121.14720 | 24459 ft | 374 kts | 303° |
| 2026-05-07 00:58 | 46.91775 | -121.17856 | 23908 ft | 372 kts | 303° |
| 2026-05-07 00:58 | 46.93217 | -121.20947 | 23329 ft | 372 kts | 303° |
| 2026-05-07 00:58 | 46.94677 | -121.24076 | 22732 ft | 369 kts | 303° |
| 2026-05-07 00:58 | 46.96116 | -121.27167 | 22178 ft | 367 kts | 303° |
| 2026-05-07 00:59 | 46.98968 | -121.33297 | 21110 ft | 360 kts | 303° |
| 2026-05-07 00:59 | 47.00374 | -121.36326 | 20590 ft | 357 kts | 303° |
| 2026-05-07 00:59 | 47.01766 | -121.39328 | 20093 ft | 354 kts | 302° |
| 2026-05-07 01:00 | 47.03125 | -121.42263 | 19970 ft | 341 kts | 303° |
| 2026-05-07 01:00 | 47.04440 | -121.45102 | 19811 ft | 331 kts | 303° |
| 2026-05-07 01:00 | 47.05711 | -121.47851 | 19642 ft | 321 kts | 302° |
| 2026-05-07 01:00 | 47.06936 | -121.50502 | 19568 ft | 309 kts | 303° |
| 2026-05-07 01:01 | 47.08130 | -121.53090 | 19242 ft | 305 kts | 302° |
| 2026-05-07 01:01 | 47.09296 | -121.55618 | 18935 ft | 300 kts | 302° |
| 2026-05-07 01:01 | 47.10460 | -121.58151 | 18610 ft | 299 kts | 302° |
| 2026-05-07 01:01 | 47.11628 | -121.60688 | 18201 ft | 299 kts | 302° |
| 2026-05-07 01:02 | 47.12799 | -121.63236 | 17635 ft | 302 kts | 302° |
| 2026-05-07 01:02 | 47.13970 | -121.65786 | 17236 ft | 300 kts | 302° |
| 2026-05-07 01:02 | 47.15134 | -121.68322 | 16832 ft | 299 kts | 302° |
| 2026-05-07 01:02 | 47.16291 | -121.70847 | 16467 ft | 297 kts | 301° |
| 2026-05-07 01:03 | 47.17440 | -121.73355 | 16092 ft | 296 kts | 301° |
| 2026-05-07 01:03 | 47.18586 | -121.75859 | 15709 ft | 294 kts | 301° |
| 2026-05-07 01:03 | 47.19725 | -121.78350 | 15340 ft | 293 kts | 301° |
| 2026-05-07 01:03 | 47.20857 | -121.80832 | 14991 ft | 291 kts | 301° |
| 2026-05-07 01:04 | 47.21977 | -121.83286 | 14793 ft | 288 kts | 301° |
| 2026-05-07 01:04 | 47.23079 | -121.85699 | 14586 ft | 290 kts | 301° |
| 2026-05-07 01:04 | 47.24217 | -121.88199 | 14361 ft | 297 kts | 301° |
| 2026-05-07 01:04 | 47.25372 | -121.90738 | 14122 ft | 298 kts | 301° |
| 2026-05-07 01:05 | 47.26525 | -121.93271 | 13887 ft | 297 kts | 301° |
| 2026-05-07 01:05 | 47.27676 | -121.95805 | 13649 ft | 296 kts | 301° |
| 2026-05-07 01:05 | 47.28814 | -121.98312 | 13415 ft | 294 kts | 301° |
| 2026-05-07 01:05 | 47.29950 | -122.00814 | 13190 ft | 292 kts | 301° |
| 2026-05-07 01:06 | 47.31074 | -122.03298 | 12967 ft | 291 kts | 301° |
| 2026-05-07 01:06 | 47.32180 | -122.05742 | 12756 ft | 290 kts | 301° |
| 2026-05-07 01:06 | 47.33301 | -122.08219 | 12538 ft | 289 kts | 301° |
| 2026-05-07 01:06 | 47.34408 | -122.10669 | 12315 ft | 284 kts | 301° |
| 2026-05-07 01:07 | 47.35492 | -122.13068 | 12090 ft | 278 kts | 301° |
| 2026-05-07 01:07 | 47.36586 | -122.15401 | 11771 ft | 277 kts | 308° |
| 2026-05-07 01:07 | 47.38149 | -122.17100 | 11420 ft | 285 kts | 330° |
| 2026-05-07 01:07 | 47.40038 | -122.17992 | 11080 ft | 289 kts | 344° |
| 2026-05-07 01:08 | 47.41996 | -122.18464 | 10738 ft | 282 kts | 346° |
| 2026-05-07 01:08 | 47.43918 | -122.18838 | 10399 ft | 275 kts | 348° |
| 2026-05-07 01:08 | 47.45818 | -122.18993 | 10054 ft | 273 kts | 356° |
| 2026-05-07 01:08 | 47.47675 | -122.18877 | 9690 ft | 268 kts | 358° |
| 2026-05-07 01:09 | 47.49519 | -122.18729 | 9329 ft | 263 kts | 358° |
| 2026-05-07 01:09 | 47.51333 | -122.18583 | 8971 ft | 259 kts | 358° |
| 2026-05-07 01:09 | 47.53119 | -122.18445 | 8618 ft | 255 kts | 358° |
| 2026-05-07 01:09 | 47.54863 | -122.18318 | 8274 ft | 252 kts | 358° |
| 2026-05-07 01:10 | 47.56586 | -122.18203 | 7952 ft | 245 kts | 358° |
| 2026-05-07 01:10 | 47.58261 | -122.18100 | 7631 ft | 236 kts | 358° |
| 2026-05-07 01:10 | 47.59870 | -122.18007 | 7322 ft | 228 kts | 358° |
| 2026-05-07 01:10 | 47.61437 | -122.17927 | 6976 ft | 223 kts | 358° |
| 2026-05-07 01:11 | 47.62463 | -122.17882 | 6751 ft | 223 kts | 358° |
| 2026-05-07 01:11 | 47.64016 | -122.17828 | 6402 ft | 222 kts | 358° |
| 2026-05-07 01:11 | 47.65566 | -122.17791 | 6039 ft | 222 kts | 358° |
| 2026-05-07 01:11 | 47.67073 | -122.17771 | 5980 ft | 215 kts | 358° |
| 2026-05-07 01:12 | 47.68600 | -122.17759 | 6056 ft | 222 kts | 358° |
| 2026-05-07 01:12 | 47.70170 | -122.17746 | 6056 ft | 227 kts | 358° |
| 2026-05-07 01:12 | 47.71737 | -122.17729 | 6047 ft | 224 kts | 358° |
| 2026-05-07 01:12 | 47.73258 | -122.17712 | 6045 ft | 222 kts | 358° |
| 2026-05-07 01:13 | 47.74834 | -122.17693 | 6050 ft | 221 kts | 358° |
| 2026-05-07 01:13 | 47.76367 | -122.17676 | 6050 ft | 220 kts | 358° |
| 2026-05-07 01:13 | 47.77904 | -122.17659 | 6060 ft | 221 kts | 358° |
| 2026-05-07 01:13 | 47.79447 | -122.17644 | 6059 ft | 223 kts | 358° |
| 2026-05-07 01:14 | 47.80983 | -122.17628 | 6060 ft | 224 kts | 358° |
| 2026-05-07 01:14 | 47.82529 | -122.17799 | 6054 ft | 222 kts | 340° |
| 2026-05-07 01:14 | 47.83782 | -122.19044 | 6075 ft | 218 kts | 307° |
| 2026-05-07 01:14 | 47.84328 | -122.21100 | 6071 ft | 217 kts | 274° |
| 2026-05-07 01:15 | 47.84057 | -122.23292 | 6056 ft | 220 kts | 245° |
| 2026-05-07 01:15 | 47.83005 | -122.24947 | 6076 ft | 224 kts | 218° |
| 2026-05-07 01:15 | 47.81688 | -122.26202 | 6071 ft | 225 kts | 216° |
| 2026-05-07 01:15 | 47.80371 | -122.27405 | 6052 ft | 225 kts | 215° |
| 2026-05-07 01:16 | 47.79034 | -122.28623 | 6045 ft | 226 kts | 214° |
| 2026-05-07 01:16 | 47.77685 | -122.29884 | 6052 ft | 226 kts | 215° |
| 2026-05-07 01:16 | 47.76370 | -122.31103 | 6056 ft | 227 kts | 211° |
| 2026-05-07 01:16 | 47.74812 | -122.31610 | 6016 ft | 236 kts | 181° |
| 2026-05-07 01:17 | 47.73157 | -122.31546 | 5707 ft | 236 kts | 182° |
| 2026-05-07 01:17 | 47.71534 | -122.31566 | 5400 ft | 229 kts | 182° |
| 2026-05-07 01:17 | 47.69960 | -122.31591 | 5110 ft | 222 kts | 181° |
| 2026-05-07 01:17 | 47.68440 | -122.31608 | 4808 ft | 215 kts | 181° |
| 2026-05-07 01:18 | 47.66958 | -122.31621 | 4517 ft | 210 kts | 181° |
| 2026-05-07 01:18 | 47.65515 | -122.31632 | 4242 ft | 205 kts | 181° |
| 2026-05-07 01:18 | 47.64116 | -122.31643 | 3969 ft | 198 kts | 181° |
| 2026-05-07 01:18 | 47.62779 | -122.31654 | 3715 ft | 193 kts | 181° |
| 2026-05-07 01:19 | 47.61455 | -122.31665 | 3457 ft | 187 kts | 181° |
| 2026-05-07 01:19 | 47.60172 | -122.31676 | 3200 ft | 182 kts | 182° |
| 2026-05-07 01:19 | 47.58924 | -122.31686 | 2955 ft | 176 kts | 182° |
| 2026-05-07 01:19 | 47.57700 | -122.31696 | 2726 ft | 175 kts | 181° |
| 2026-05-07 01:20 | 47.56498 | -122.31706 | 2487 ft | 173 kts | 182° |
| 2026-05-07 01:20 | 47.55302 | -122.31716 | 2238 ft | 168 kts | 182° |
| 2026-05-07 01:20 | 47.54158 | -122.31725 | 2021 ft | 163 kts | 181° |
| 2026-05-07 01:20 | 47.53078 | -122.31733 | 1832 ft | 149 kts | 183° |
| 2026-05-07 01:21 | 47.52075 | -122.31742 | 1600 ft | 139 kts | 182° |
| 2026-05-07 01:21 | 47.51123 | -122.31750 | 1413 ft | 136 kts | 183° |
| 2026-05-07 01:21 | 47.50174 | -122.31758 | 1226 ft | 137 kts | 184° |
| 2026-05-07 01:21 | 47.49231 | -122.31766 | 1034 ft | 138 kts | 182° |
| 2026-05-07 01:22 | 47.48288 | -122.31773 | 839 ft | 140 kts | 183° |
| 2026-05-07 01:22 | 47.47293 | -122.31782 | 662 ft | 146 kts | 182° |
| 2026-05-07 01:22 | 47.46267 | -122.31788 | 455 ft | 148 kts | 182° |
| 2026-05-07 01:22 | 47.45308 | -122.31799 | 390 ft | 116 kts | 180° |
| 2026-05-07 01:23 | 47.44759 | -122.31800 | 386 ft | 47 kts | 176° |
| 2026-05-07 01:23 | 47.44496 | -122.31669 | 375 ft | 31 kts | 151° |
| 2026-05-07 01:23 | 47.44334 | -122.31529 | 375 ft | 21 kts | 148° |
| 2026-05-07 01:23 | 47.44243 | -122.31371 | 378 ft | 20 kts | 111° |
| 2026-05-07 01:24 | 47.44194 | -122.31177 | 382 ft | 20 kts | 119° |
| 2026-05-07 01:24 | 47.44082 | -122.31033 | 380 ft | 24 kts | 150° |
| 2026-05-07 01:24 | 47.43948 | -122.30915 | 378 ft | 20 kts | 141° |
| 2026-05-07 01:24 | 47.43903 | -122.30720 | 379 ft | 23 kts | 88° |
| 2026-05-07 01:25 | 47.43986 | -122.30601 | 383 ft | 11 kts | 58° |
| 2026-05-07 01:25 | 47.43992 | -122.30477 | 384 ft | 14 kts | 92° |
| 2026-05-07 01:25 | 47.44001 | -122.30325 | 386 ft | 16 kts | 74° |
| 2026-05-07 01:25 | 47.44042 | -122.30246 | 388 ft | 4 kts | 20° |
| 2026-05-07 01:26 | 47.44081 | -122.30246 | 388 ft | 7 kts | 349° |
| 2026-05-07 01:26 | 47.44094 | -122.30250 | 389 ft | 0 kts | 348° |
| 2026-05-07 01:26 | 47.44096 | -122.30250 | 389 ft | 1 kts | 348° |
| 2026-05-07 01:26 | 47.44112 | -122.30266 | 389 ft | 5 kts | 311° |
| 2026-05-07 01:27 | 47.44124 | -122.30302 | 389 ft | 1 kts | 291° |
| 2026-05-07 01:27 | 47.44127 | -122.30313 | 388 ft | 1 kts | 291° |
| 2026-05-07 01:27 | 47.44127 | -122.30315 | 388 ft | 0 kts | 291° |